Time;durP1;ratioP1;P1;durP2;ratioP2;P2;SDS_P1;SDS_P2;PMS_P1;PMS_P2;Temp;Humidity;BMP_temperature;BMP_pressure;BME280_temperature;BME280_humidity;BME280_pressure;Samples;Min_cycle;Max_cycle;Signal;HPM_P1;HPM_P2
2022/01/21 00:00:24;;;;;;;2.33;1.60;;;12.30;67.30;;;;;;10369611;28;20217;-89
2022/01/21 00:05:27;;;;;;;3.03;1.80;;;12.10;64.90;;;;;;10352695;28;20644;-89
2022/01/21 00:10:29;;;;;;;3.37;2.20;;;12.20;66.90;;;;;;10369422;28;20634;-89
2022/01/21 00:15:32;;;;;;;3.43;1.87;;;12.40;66.80;;;;;;10368855;28;20259;-89
2022/01/21 00:31:16;;;;;;;3.73;1.70;;;12.30;66.80;;;;;;10460898;28;20261;-89
2022/01/21 00:36:19;;;;;;;2.93;1.60;;;12.50;66.10;;;;;;10452848;28;20207;-89
2022/01/21 00:41:26;;;;;;;3.73;1.60;;;12.40;66.50;;;;;;10453331;28;20259;-89
2022/01/21 00:46:28;;;;;;;3.03;1.73;;;12.20;66.50;;;;;;10455029;28;20199;-89
2022/01/21 00:51:31;;;;;;;5.33;1.77;;;12.50;65.70;;;;;;10453177;28;20211;-89
2022/01/21 00:56:34;;;;;;;4.03;1.50;;;12.30;65.40;;;;;;10453676;28;20188;-89
2022/01/21 01:01:37;;;;;;;3.20;1.73;;;12.10;66.00;;;;;;10452877;28;20254;-89
2022/01/21 01:06:41;;;;;;;3.60;1.60;;;12.30;65.60;;;;;;10453002;28;20203;-88
2022/01/21 01:22:43;;;;;;;2.77;1.87;;;12.40;65.00;;;;;;10452492;28;20241;-89
2022/01/21 01:27:46;;;;;;;4.37;1.83;;;12.50;64.70;;;;;;10465821;28;20230;-90
2022/01/21 01:32:50;;;;;;;3.50;1.30;;;12.50;64.40;;;;;;10526593;28;20202;-89
2022/01/21 01:53:38;;;;;;;3.77;1.60;;;12.40;64.30;;;;;;10544113;28;20202;-89
2022/01/21 01:58:43;;;;;;;2.27;1.77;;;12.40;64.30;;;;;;10543897;28;20225;-89
2022/01/21 02:03:45;;;;;;;3.23;1.60;;;12.40;64.20;;;;;;10525020;28;20276;-89
2022/01/21 02:08:48;;;;;;;4.30;1.80;;;12.40;64.00;;;;;;10543614;28;20554;-89
2022/01/21 02:13:58;;;;;;;2.73;1.77;;;12.10;64.40;;;;;;10543468;28;20224;-89
2022/01/21 02:24:30;;;;;;;2.70;1.50;;;12.50;63.70;;;;;;10524603;28;20704;-88
2022/01/21 02:29:44;;;;;;;3.53;1.70;;;12.40;63.70;;;;;;10524349;28;20595;-89
2022/01/21 02:34:48;;;;;;;3.43;1.83;;;12.30;63.90;;;;;;10523911;28;20255;-89
2022/01/21 02:39:51;;;;;;;2.73;1.70;;;12.30;63.80;;;;;;10522695;28;20222;-89
2022/01/21 02:44:54;;;;;;;2.00;1.20;;;12.30;63.70;;;;;;10523683;28;20759;-89
2022/01/21 02:49:57;;;;;;;4.00;1.77;;;12.40;63.50;;;;;;10506976;28;20215;-89
2022/01/21 02:55:00;;;;;;;2.77;1.50;;;12.20;63.60;;;;;;10506833;28;20214;-89
2022/01/21 03:00:05;;;;;;;2.90;1.60;;;12.30;63.70;;;;;;10523092;28;20271;-89
2022/01/21 03:05:13;;;;;;;3.80;1.40;;;12.30;63.50;;;;;;10522757;28;20257;-89
2022/01/21 03:10:16;;;;;;;3.23;1.87;;;12.30;63.70;;;;;;10506419;28;20202;-89
2022/01/21 03:15:19;;;;;;;3.17;1.70;;;12.20;63.70;;;;;;10522522;28;20211;-89
2022/01/21 03:20:23;;;;;;;1.80;1.37;;;12.30;63.50;;;;;;10522286;28;20227;-89
2022/01/21 03:25:25;;;;;;;2.33;1.23;;;12.30;63.30;;;;;;10522148;28;20197;-89
2022/01/21 03:30:28;;;;;;;2.50;1.20;;;12.30;63.50;;;;;;10522212;28;20231;-89
2022/01/21 03:35:37;;;;;;;4.80;1.73;;;12.30;63.00;;;;;;10521634;28;20412;-89
2022/01/21 03:40:40;;;;;;;3.33;2.10;;;12.20;63.00;;;;;;10521526;28;20248;-89
2022/01/21 03:45:43;;;;;;;3.80;1.80;;;12.30;63.50;;;;;;10505033;28;20206;-89
2022/01/21 03:50:47;;;;;;;2.87;1.33;;;12.20;62.80;;;;;;10504734;28;20345;-88
2022/01/21 03:55:50;;;;;;;4.10;1.30;;;12.20;63.40;;;;;;10521171;28;20213;-89
2022/01/21 04:00:54;;;;;;;3.17;1.80;;;12.00;63.50;;;;;;10521040;28;20243;-89
2022/01/21 04:05:57;;;;;;;4.10;1.63;;;12.10;63.90;;;;;;10520725;28;20199;-90
2022/01/21 04:11:00;;;;;;;2.27;1.40;;;11.90;62.90;;;;;;10520724;28;20571;-89
2022/01/21 04:16:05;;;;;;;5.03;1.20;;;11.80;64.30;;;;;;10520632;28;20270;-90
2022/01/21 04:21:09;;;;;;;2.23;1.07;;;12.20;63.90;;;;;;10503963;28;20217;-90
2022/01/21 04:26:12;;;;;;;2.83;1.53;;;11.90;64.20;;;;;;10520415;28;20565;-89
2022/01/21 04:31:14;;;;;;;2.03;1.33;;;11.40;61.30;;;;;;10520206;28;20287;-89
2022/01/21 04:36:24;;;;;;;1.77;1.00;;;11.80;64.60;;;;;;10520035;28;20263;-89
2022/01/21 04:52:09;;;;;;;2.20;1.17;;;11.90;63.90;;;;;;10519804;28;20209;-89
2022/01/21 04:57:33;;;;;;;1.87;1.13;;;12.10;64.00;;;;;;10538292;28;20199;-90
2022/01/21 05:02:37;;;;;;;2.57;1.10;;;11.70;65.20;;;;;;10523020;28;20253;-89
2022/01/21 05:07:41;;;;;;;3.33;1.33;;;11.90;63.80;;;;;;10527707;28;20748;-89
2022/01/21 05:12:45;;;;;;;2.93;0.83;;;12.00;64.40;;;;;;10527548;28;20271;-90
2022/01/21 05:17:50;;;;;;;4.97;1.70;;;12.10;62.10;;;;;;10527364;28;20217;-89
2022/01/21 05:23:05;;;;;;;3.97;1.30;;;12.20;63.50;;;;;;10512002;28;20213;-90
2022/01/21 05:28:08;;;;;;;4.33;1.50;;;12.00;64.00;;;;;;10526756;28;20244;-89
2022/01/21 05:33:27;;;;;;;1.90;1.20;;;12.00;62.90;;;;;;10526227;28;20234;-89
2022/01/21 05:38:58;;;;;;;2.30;1.20;;;11.60;64.80;;;;;;10513614;28;20205;-89
2022/01/21 05:50:11;;;;;;;3.13;1.10;;;11.70;64.90;;;;;;10376723;28;20205;-89
2022/01/21 05:55:19;;;;;;;2.07;1.07;;;11.90;62.40;;;;;;10375207;28;20703;-89
2022/01/21 06:00:38;;;;;;;4.47;1.63;;;11.90;64.50;;;;;;10374207;28;20221;-90
2022/01/21 06:05:40;;;;;;;2.50;1.20;;;12.20;63.90;;;;;;10372947;28;20667;-89
2022/01/21 06:10:43;;;;;;;2.60;0.90;;;12.20;63.40;;;;;;10373726;28;20213;-89
2022/01/21 06:15:47;;;;;;;1.90;1.23;;;12.10;63.70;;;;;;10356454;28;20267;-90
2022/01/21 06:20:49;;;;;;;2.97;1.93;;;11.90;63.70;;;;;;10373481;28;20775;-89
2022/01/21 06:25:52;;;;;;;2.77;1.20;;;12.10;63.70;;;;;;10472721;28;20572;-88
2022/01/21 06:30:55;;;;;;;2.07;1.40;;;12.10;63.60;;;;;;10542480;28;20226;-89
2022/01/21 06:35:57;;;;;;;4.70;1.60;;;11.80;63.60;;;;;;10542306;28;20250;-89
2022/01/21 06:41:00;;;;;;;2.47;1.57;;;11.90;63.70;;;;;;10542161;28;20222;-89
2022/01/21 06:46:03;;;;;;;4.50;1.60;;;12.00;63.80;;;;;;10542016;28;20597;-88
2022/01/21 06:51:06;;;;;;;3.00;1.43;;;12.00;63.80;;;;;;10523636;28;20214;-89
2022/01/21 06:56:08;;;;;;;2.57;1.53;;;12.10;63.40;;;;;;10523945;28;20195;-89
2022/01/21 07:01:11;;;;;;;5.17;1.40;;;12.20;63.40;;;;;;10540715;28;20220;-89
2022/01/21 07:06:13;;;;;;;2.80;1.63;;;12.20;63.20;;;;;;10522712;28;20260;-89
2022/01/21 07:11:16;;;;;;;4.07;1.97;;;12.00;59.80;;;;;;10540945;28;20243;-88
2022/01/21 07:16:18;;;;;;;4.57;2.20;;;12.00;63.80;;;;;;10506132;28;20619;-89
2022/01/21 07:21:21;;;;;;;4.80;1.50;;;12.10;63.40;;;;;;10522369;28;20270;-88
2022/01/21 07:26:23;;;;;;;5.17;2.07;;;11.90;63.70;;;;;;10521862;28;20271;-89
2022/01/21 07:31:26;;;;;;;2.60;1.47;;;12.10;63.00;;;;;;10540085;28;20639;-88
2022/01/21 07:36:29;;;;;;;5.10;1.77;;;11.40;64.30;;;;;;10521925;28;20569;-89
2022/01/21 07:41:31;;;;;;;4.73;1.90;;;11.90;63.20;;;;;;10521961;28;20210;-89
2022/01/21 07:46:34;;;;;;;4.50;1.63;;;12.30;63.10;;;;;;10521562;28;20206;-89
2022/01/21 07:51:36;;;;;;;3.17;1.80;;;12.20;63.00;;;;;;10539290;28;20235;-89
2022/01/21 07:56:39;;;;;;;6.57;2.47;;;12.20;63.10;;;;;;10521450;28;20248;-89
2022/01/21 08:01:42;;;;;;;2.03;1.03;;;11.70;62.50;;;;;;10539326;28;20213;-88
2022/01/21 08:06:45;;;;;;;8.77;2.33;;;12.00;59.30;;;;;;10521048;28;20220;-89
2022/01/21 08:11:47;;;;;;;3.43;1.50;;;11.90;59.10;;;;;;10521109;28;20196;-89
2022/01/21 08:16:51;;;;;;;3.83;1.97;;;12.00;63.40;;;;;;10538787;28;20561;-89
2022/01/21 08:21:53;;;;;;;3.00;1.60;;;11.40;64.50;;;;;;10538568;28;20597;-89
2022/01/21 08:27:02;;;;;;;3.50;1.50;;;11.50;63.20;;;;;;10538735;28;20193;-89
2022/01/21 08:32:09;;;;;;;2.43;1.50;;;11.80;62.50;;;;;;10538464;28;20223;-90
2022/01/21 08:37:12;;;;;;;9.60;1.90;;;12.20;63.00;;;;;;10540921;28;20251;-89
2022/01/21 08:42:14;;;;;;;2.97;2.03;;;12.10;62.70;;;;;;10547055;28;20267;-89
2022/01/21 08:47:20;;;;;;;4.17;1.93;;;12.20;62.90;;;;;;10529040;28;20216;-90
2022/01/21 08:52:26;;;;;;;2.30;1.43;;;12.00;61.30;;;;;;10546711;28;20229;-89
2022/01/21 08:57:29;;;;;;;5.07;1.90;;;12.30;62.30;;;;;;10528630;28;20590;-90
2022/01/21 09:02:31;;;;;;;3.70;1.67;;;12.10;63.00;;;;;;10527599;28;20590;-90
2022/01/21 09:07:34;;;;;;;4.57;2.13;;;11.70;63.90;;;;;;10527768;28;20256;-90
2022/01/21 09:12:37;;;;;;;2.60;1.47;;;11.90;59.30;;;;;;10528061;28;20198;-90
2022/01/21 09:17:40;;;;;;;3.03;1.73;;;11.30;64.40;;;;;;10545544;28;20574;-90
2022/01/21 09:22:43;;;;;;;2.47;1.50;;;11.80;62.00;;;;;;10545233;28;20207;-89
2022/01/21 09:27:46;;;;;;;2.80;1.90;;;11.70;63.00;;;;;;10510601;28;20255;-90
2022/01/21 09:32:48;;;;;;;4.87;2.17;;;11.90;62.80;;;;;;10545182;28;20191;-90
2022/01/21 09:37:51;;;;;;;3.73;1.30;;;11.90;63.50;;;;;;10544616;28;20232;-90
2022/01/21 09:43:15;;;;;;;5.63;1.53;;;11.80;63.20;;;;;;10529740;28;20214;-89
2022/01/21 09:48:29;;;;;;;3.53;1.50;;;12.20;62.90;;;;;;10526358;28;20557;-91
2022/01/21 09:53:34;;;;;;;2.77;1.50;;;12.30;62.50;;;;;;10544217;28;20201;-91
2022/01/21 09:58:39;;;;;;;8.57;3.20;;;11.90;62.80;;;;;;10544168;28;20194;-90
2022/01/21 10:03:49;;;;;;;1.97;1.30;;;11.90;59.20;;;;;;10526408;28;20218;-89
2022/01/21 10:08:55;;;;;;;4.03;1.93;;;12.20;62.50;;;;;;10543805;28;20190;-89
2022/01/21 10:13:58;;;;;;;4.50;2.60;;;11.40;64.00;;;;;;10525556;28;20197;-88
2022/01/21 10:19:05;;;;;;;6.70;2.13;;;10.60;62.10;;;;;;10543132;28;20201;-88
2022/01/21 10:24:11;;;;;;;2.60;1.73;;;12.20;62.70;;;;;;10524655;28;20222;-89
2022/01/21 10:29:15;;;;;;;3.47;1.70;;;11.50;60.10;;;;;;10524308;28;20639;-89
2022/01/21 10:34:26;;;;;;;5.23;2.23;;;10.70;59.40;;;;;;10524434;28;20202;-88
2022/01/21 10:39:53;;;;;;;3.67;1.73;;;11.40;64.30;;;;;;10524310;28;20266;-88
2022/01/21 10:44:57;;;;;;;4.10;1.90;;;11.50;63.20;;;;;;10524030;28;20283;-88
2022/01/21 10:50:14;;;;;;;5.93;2.30;;;10.00;68.20;;;;;;10541841;28;20243;-87
2022/01/21 10:55:35;;;;;;;2.83;1.97;;;10.60;60.00;;;;;;10541771;28;20197;-88
2022/01/21 11:01:00;;;;;;;6.23;1.97;;;11.90;61.10;;;;;;10505756;28;20210;-87
2022/01/21 11:06:18;;;;;;;4.33;1.40;;;11.70;62.10;;;;;;10541088;28;20218;-87
2022/01/21 11:11:24;;;;;;;6.40;1.90;;;11.20;65.00;;;;;;10523830;28;20278;-87
2022/01/21 11:16:33;;;;;;;5.73;2.07;;;10.00;56.10;;;;;;10522614;28;20578;-87
2022/01/21 11:22:00;;;;;;;3.07;1.67;;;11.10;64.00;;;;;;10540837;28;20210;-87
2022/01/21 11:27:16;;;;;;;2.70;1.70;;;9.10;61.60;;;;;;10540501;28;20551;-87
2022/01/21 11:32:19;;;;;;;4.10;1.53;;;9.40;67.60;;;;;;10521994;28;20209;-86
2022/01/21 11:37:24;;;;;;;3.50;1.67;;;9.80;56.50;;;;;;10539934;28;20306;-86
2022/01/21 11:42:26;;;;;;;4.80;2.00;;;9.30;67.10;;;;;;10539891;28;20565;-87
2022/01/21 11:47:47;;;;;;;2.27;1.33;;;11.40;63.90;;;;;;10521519;28;20239;-86
2022/01/21 11:52:50;;;;;;;4.13;1.57;;;10.80;65.80;;;;;;10521642;28;20577;-87
2022/01/21 11:58:13;;;;;;;2.90;2.00;;;11.50;62.20;;;;;;10539388;28;20246;-87
2022/01/21 12:03:23;;;;;;;3.27;1.77;;;10.40;64.00;;;;;;10521478;28;20221;-87
2022/01/21 12:08:45;;;;;;;5.67;2.90;;;11.80;63.20;;;;;;10538959;28;20566;-87
2022/01/21 12:13:48;;;;;;;5.97;1.70;;;11.20;58.90;;;;;;10538190;28;20606;-88
2022/01/21 12:19:18;;;;;;;2.87;1.60;;;11.50;59.70;;;;;;10520632;28;20712;-86
2022/01/21 12:24:44;;;;;;;3.23;1.43;;;11.10;64.50;;;;;;10538742;28;20583;-88
2022/01/21 12:29:47;;;;;;;1.93;1.53;;;11.50;56.30;;;;;;10520571;28;20272;-87
2022/01/21 12:34:59;;;;;;;4.63;2.10;;;11.20;64.20;;;;;;10520760;28;20197;-87
2022/01/21 12:40:01;;;;;;;3.10;1.83;;;11.40;61.80;;;;;;10520962;28;20194;-87
2022/01/21 12:45:05;;;;;;;3.90;2.10;;;10.90;63.40;;;;;;10520452;28;20239;-87
2022/01/21 12:56:03;;;;;;;3.60;1.53;;;11.60;63.00;;;;;;10519973;28;20263;-87
2022/01/21 13:01:09;;;;;;;3.50;1.70;;;11.60;62.10;;;;;;10538231;28;20243;-87
2022/01/21 13:06:24;;;;;;;2.67;1.93;;;12.10;61.80;;;;;;10537752;28;20218;-88
2022/01/21 13:11:29;;;;;;;3.03;1.67;;;12.20;60.70;;;;;;10519644;28;20205;-87
2022/01/21 13:16:32;;;;;;;3.83;2.40;;;11.00;63.80;;;;;;10519965;28;20224;-87
2022/01/21 13:21:35;;;;;;;2.03;1.47;;;11.50;58.10;;;;;;10537596;28;20201;-87
2022/01/21 13:26:39;;;;;;;6.57;2.90;;;12.10;61.80;;;;;;10544115;28;20713;-87
2022/01/21 13:31:48;;;;;;;3.30;2.20;;;11.90;54.00;;;;;;10544966;28;20668;-88
2022/01/21 13:37:00;;;;;;;5.47;2.13;;;11.80;61.10;;;;;;10544859;28;20186;-87
2022/01/21 13:42:03;;;;;;;3.43;1.60;;;12.20;61.20;;;;;;10544409;28;20541;-87
2022/01/21 13:47:22;;;;;;;8.60;2.57;;;12.40;60.90;;;;;;10526667;28;20605;-87
2022/01/21 13:52:43;;;;;;;3.27;1.70;;;12.30;60.80;;;;;;10526061;28;20201;-87
2022/01/21 13:57:45;;;;;;;5.80;2.47;;;12.50;60.90;;;;;;10525803;28;20231;-87
2022/01/21 14:03:22;;;;;;;3.07;1.93;;;11.90;59.50;;;;;;10525526;28;20226;-87
2022/01/21 14:08:40;;;;;;;5.07;2.77;;;12.10;61.70;;;;;;10525562;28;20239;-88
2022/01/21 14:13:46;;;;;;;3.47;2.13;;;11.70;62.20;;;;;;10543485;28;20245;-87
2022/01/21 14:18:51;;;;;;;3.53;2.00;;;11.90;62.00;;;;;;10543303;28;20203;-87
2022/01/21 14:23:54;;;;;;;4.37;2.30;;;11.80;62.50;;;;;;10524705;28;20226;-88
2022/01/21 14:28:59;;;;;;;3.23;1.80;;;12.10;62.00;;;;;;10543074;28;20590;-87
2022/01/21 14:34:23;;;;;;;3.20;1.67;;;11.00;63.20;;;;;;10523589;28;20561;-87
2022/01/21 14:39:26;;;;;;;3.93;2.03;;;11.70;63.00;;;;;;10542411;28;20235;-87
2022/01/21 14:44:45;;;;;;;4.17;1.93;;;10.80;64.70;;;;;;10524155;28;20582;-88
2022/01/21 14:49:55;;;;;;;6.13;3.93;;;11.70;63.00;;;;;;10523690;28;20197;-88
2022/01/21 14:55:08;;;;;;;3.30;2.20;;;11.30;57.80;;;;;;10524161;28;20622;-88
2022/01/21 15:00:11;;;;;;;3.93;2.00;;;12.00;62.30;;;;;;10541494;28;20244;-88
2022/01/21 15:05:14;;;;;;;6.27;2.50;;;12.00;61.20;;;;;;10541271;28;20209;-88
2022/01/21 15:10:29;;;;;;;6.17;2.13;;;11.90;62.90;;;;;;10541278;28;20239;-88
2022/01/21 15:15:53;;;;;;;3.67;2.10;;;11.70;62.80;;;;;;10523165;28;20191;-88
2022/01/21 15:20:55;;;;;;;4.17;2.60;;;12.20;61.80;;;;;;10522855;28;20224;-88
2022/01/21 15:25:59;;;;;;;5.63;2.33;;;12.10;62.00;;;;;;10540458;28;20213;-88
2022/01/21 15:31:02;;;;;;;3.30;2.60;;;11.90;62.60;;;;;;10521937;28;20274;-87
2022/01/21 15:36:05;;;;;;;3.87;2.47;;;12.00;61.50;;;;;;10539923;28;20207;-88
2022/01/21 15:41:07;;;;;;;5.97;2.20;;;12.00;62.50;;;;;;10539904;28;20565;-87
2022/01/21 15:46:10;;;;;;;4.23;2.00;;;11.80;63.00;;;;;;10540036;28;20221;-88
2022/01/21 15:51:13;;;;;;;3.53;2.20;;;12.00;62.50;;;;;;10539638;28;20190;-87
2022/01/21 15:56:15;;;;;;;6.03;3.10;;;12.10;60.00;;;;;;10521597;28;20194;-87
2022/01/21 16:01:38;;;;;;;4.13;2.43;;;12.10;62.10;;;;;;10507255;28;20217;-87
2022/01/21 16:06:42;;;;;;;5.80;2.40;;;11.60;63.20;;;;;;10539031;28;20218;-88
2022/01/21 16:11:44;;;;;;;4.50;2.63;;;11.80;62.90;;;;;;10539052;28;20231;-87
2022/01/21 16:16:47;;;;;;;4.43;2.80;;;12.00;62.60;;;;;;10520719;28;20209;-88
2022/01/21 16:21:50;;;;;;;7.00;2.90;;;11.80;63.10;;;;;;10521018;28;20203;-87
2022/01/21 16:26:52;;;;;;;3.10;2.07;;;11.30;62.80;;;;;;10538868;28;20267;-88
2022/01/21 16:31:55;;;;;;;5.67;2.67;;;11.40;64.80;;;;;;10538561;28;20222;-88
2022/01/21 16:36:58;;;;;;;5.83;2.93;;;11.80;62.60;;;;;;10538541;28;20193;-87
2022/01/21 16:42:00;;;;;;;6.80;2.97;;;12.00;63.00;;;;;;10538467;28;20197;-88
2022/01/21 16:47:03;;;;;;;5.00;2.67;;;11.90;62.70;;;;;;10538282;28;20243;-88
2022/01/21 16:52:06;;;;;;;5.67;2.93;;;12.00;62.60;;;;;;10503676;28;20566;-88
2022/01/21 16:57:08;;;;;;;4.20;2.83;;;11.90;62.40;;;;;;10520766;28;20209;-88
2022/01/21 17:02:12;;;;;;;5.47;3.17;;;11.90;62.60;;;;;;10528437;28;20225;-89
2022/01/21 17:07:16;;;;;;;4.30;2.77;;;12.10;62.40;;;;;;10545797;28;20586;-88
2022/01/21 17:12:19;;;;;;;5.43;3.00;;;12.20;62.30;;;;;;10511144;28;20203;-88
2022/01/21 17:17:22;;;;;;;4.87;3.27;;;12.30;62.00;;;;;;10545650;28;20188;-89
2022/01/21 17:22:26;;;;;;;5.57;3.50;;;12.20;61.70;;;;;;10527771;28;20573;-88
2022/01/21 17:27:30;;;;;;;4.50;2.57;;;12.30;62.10;;;;;;10545189;28;21645;-88
2022/01/21 17:32:32;;;;;;;9.60;4.33;;;12.30;62.20;;;;;;10526808;28;20239;-88
2022/01/21 17:37:36;;;;;;;3.57;2.73;;;12.20;60.40;;;;;;10544875;28;20551;-89
2022/01/21 17:42:39;;;;;;;7.93;3.43;;;12.40;61.80;;;;;;10526821;28;20247;-88
2022/01/21 17:47:43;;;;;;;7.30;3.30;;;12.40;61.70;;;;;;10544494;28;20222;-89
2022/01/21 17:52:46;;;;;;;6.53;3.20;;;12.40;61.80;;;;;;10544298;28;20273;-88
2022/01/21 17:57:51;;;;;;;6.03;2.87;;;12.30;61.80;;;;;;10544143;28;20237;-88
2022/01/21 18:02:54;;;;;;;7.20;3.50;;;12.30;61.70;;;;;;10544029;28;20198;-88
2022/01/21 18:07:57;;;;;;;8.03;3.77;;;12.40;61.50;;;;;;10508789;28;20555;-88
2022/01/21 18:12:59;;;;;;;9.33;4.20;;;12.20;61.70;;;;;;10543516;28;20187;-88
2022/01/21 18:18:02;;;;;;;5.13;3.13;;;12.20;61.80;;;;;;10543550;28;20194;-88
2022/01/21 18:23:04;;;;;;;7.00;3.10;;;12.20;62.00;;;;;;10524854;28;20620;-88
2022/01/21 18:28:07;;;;;;;5.10;3.33;;;12.20;62.20;;;;;;10543050;28;20226;-89
2022/01/21 18:33:10;;;;;;;10.23;3.63;;;12.30;61.40;;;;;;10542714;28;20186;-89
2022/01/21 18:38:13;;;;;;;5.87;3.47;;;12.40;61.50;;;;;;10524107;28;20197;-88
2022/01/21 18:43:24;;;;;;;8.60;4.03;;;12.10;61.80;;;;;;10524253;28;20187;-89
2022/01/21 18:48:29;;;;;;;6.37;3.03;;;12.30;61.80;;;;;;10523840;28;20227;-88
2022/01/21 18:53:32;;;;;;;6.07;3.70;;;12.30;61.30;;;;;;10541837;28;20612;-88
2022/01/21 18:58:35;;;;;;;7.33;3.50;;;12.10;61.90;;;;;;10541665;28;20230;-88
2022/01/21 19:03:38;;;;;;;7.43;3.30;;;12.10;59.90;;;;;;10523497;28;20256;-89
2022/01/21 19:08:41;;;;;;;6.10;3.27;;;12.00;60.30;;;;;;10523227;28;20251;-88
2022/01/21 19:13:43;;;;;;;5.13;3.67;;;11.80;62.10;;;;;;10522776;28;20242;-88
2022/01/21 19:18:46;;;;;;;7.00;2.93;;;12.10;61.80;;;;;;10523113;28;20197;-89
2022/01/21 19:23:56;;;;;;;3.47;2.70;;;11.80;61.10;;;;;;10505108;28;20766;-89
2022/01/21 19:28:58;;;;;;;5.93;3.17;;;11.80;62.50;;;;;;10522028;28;20594;-89
2022/01/21 19:34:00;;;;;;;6.83;3.27;;;11.00;62.50;;;;;;10540084;28;20545;-89
2022/01/21 19:39:03;;;;;;;4.40;2.70;;;11.90;62.00;;;;;;10522054;28;20228;-88
2022/01/21 19:44:06;;;;;;;4.17;2.80;;;12.10;61.70;;;;;;10521564;28;20222;-90
2022/01/21 19:49:09;;;;;;;3.57;2.40;;;11.70;61.60;;;;;;10521447;28;20193;-89
2022/01/21 19:54:12;;;;;;;4.70;2.37;;;12.00;61.50;;;;;;10521642;28;20202;-89
2022/01/21 19:59:33;;;;;;;5.80;2.93;;;12.00;61.70;;;;;;10521575;28;20197;-89
2022/01/21 20:09:59;;;;;;;4.30;3.00;;;11.90;61.60;;;;;;10520979;28;20205;-88
2022/01/21 20:15:10;;;;;;;7.87;3.87;;;12.20;61.00;;;;;;10521425;28;20247;-89
2022/01/21 20:20:14;;;;;;;5.20;3.10;;;12.20;61.10;;;;;;10520669;28;20210;-89
2022/01/21 20:25:17;;;;;;;7.73;3.23;;;12.20;61.10;;;;;;10538733;28;20243;-89
2022/01/21 20:30:19;;;;;;;6.37;3.27;;;11.60;61.20;;;;;;10503796;28;20660;-89
2022/01/21 20:35:23;;;;;;;7.50;3.17;;;11.60;61.70;;;;;;10527035;28;20615;-89
2022/01/21 20:45:28;;;;;;;5.80;3.17;;;12.00;61.90;;;;;;10546867;28;20221;-88
2022/01/21 20:50:31;;;;;;;7.03;3.67;;;12.00;61.50;;;;;;10528902;28;20221;-89
2022/01/21 20:55:34;;;;;;;6.97;2.63;;;12.20;61.20;;;;;;10546480;28;20270;-89
2022/01/21 21:00:38;;;;;;;4.20;2.63;;;12.10;61.20;;;;;;10546340;28;20608;-89
2022/01/21 21:05:40;;;;;;;5.47;2.77;;;11.60;61.80;;;;;;10545959;28;20214;-89
2022/01/21 21:10:44;;;;;;;5.13;2.93;;;11.40;62.50;;;;;;10545995;28;20244;-89
2022/01/21 21:15:55;;;;;;;5.17;3.13;;;11.80;62.00;;;;;;10545886;28;20247;-89
2022/01/21 21:24:02;;;;;;;6.97;3.30;;;11.70;62.30;;;;;;10545595;28;20569;-89
2022/01/21 21:26:45;;;;;;;5.60;3.23;;;11.60;62.70;;;;;;10545278;28;20214;-90
2022/01/21 22:51:13;;;;;;;6.50;2.87;;;11.50;64.60;;;;;;10542079;28;20190;-89
2022/01/21 23:01:36;;;;;;;7.20;3.70;;;10.40;67.40;;;;;;10523395;28;20205;-88
2022/01/21 23:06:43;;;;;;;6.60;3.97;;;8.90;71.70;;;;;;10541117;28;20582;-88
2022/01/21 23:11:47;;;;;;;4.63;2.77;;;8.50;71.80;;;;;;10541236;28;20608;-88
2022/01/21 23:16:51;;;;;;;11.70;5.97;;;9.90;70.30;;;;;;10541094;28;20224;-88
2022/01/21 23:21:54;;;;;;;7.20;3.90;;;8.70;69.80;;;;;;10522831;28;20568;-88
2022/01/21 23:26:59;;;;;;;8.47;5.47;;;9.70;70.80;;;;;;10540538;28;20217;-88
2022/01/21 23:32:02;;;;;;;4.70;2.77;;;9.60;68.20;;;;;;10539642;28;20762;-88
2022/01/21 23:37:08;;;;;;;3.70;2.87;;;9.30;72.60;;;;;;10522104;28;20202;-87
2022/01/21 23:42:13;;;;;;;4.67;2.77;;;10.30;70.20;;;;;;10540325;28;20197;-88
2022/01/21 23:47:18;;;;;;;7.17;3.30;;;9.10;73.80;;;;;;10539883;28;20214;-87
2022/01/21 23:52:20;;;;;;;6.87;3.67;;;10.80;69.30;;;;;;10539950;28;20249;-88
2022/01/21 23:57:24;;;;;;;6.50;4.17;;;10.20;68.80;;;;;;10521931;28;20670;-88
